sensor_id;sensor_type;location;lat;lon;timestamp;P1;durP1;ratioP1;P2;durP2;ratioP2
68168;SDS011;54981;50.206;15.978;2023-08-08T00:01:16;8.35;;;7.65;;
68168;SDS011;54981;50.206;15.978;2023-08-08T00:03:46;8.32;;;7.63;;
68168;SDS011;54981;50.206;15.978;2023-08-08T00:06:17;9.10;;;8.20;;
68168;SDS011;54981;50.206;15.978;2023-08-08T00:08:47;8.30;;;7.47;;
68168;SDS011;54981;50.206;15.978;2023-08-08T00:11:17;8.25;;;7.55;;
68168;SDS011;54981;50.206;15.978;2023-08-08T00:13:50;8.18;;;7.40;;
68168;SDS011;54981;50.206;15.978;2023-08-08T00:16:21;7.50;;;6.75;;
68168;SDS011;54981;50.206;15.978;2023-08-08T00:18:51;9.25;;;7.38;;
68168;SDS011;54981;50.206;15.978;2023-08-08T00:21:25;8.57;;;7.70;;
68168;SDS011;54981;50.206;15.978;2023-08-08T00:23:55;8.48;;;7.78;;
68168;SDS011;54981;50.206;15.978;2023-08-08T00:26:26;8.38;;;7.55;;
68168;SDS011;54981;50.206;15.978;2023-08-08T00:28:56;9.73;;;8.68;;
68168;SDS011;54981;50.206;15.978;2023-08-08T00:31:26;9.80;;;7.43;;
68168;SDS011;54981;50.206;15.978;2023-08-08T00:33:57;12.77;;;7.60;;
68168;SDS011;54981;50.206;15.978;2023-08-08T00:36:27;7.93;;;7.00;;
68168;SDS011;54981;50.206;15.978;2023-08-08T00:38:58;8.88;;;8.07;;
68168;SDS011;54981;50.206;15.978;2023-08-08T00:41:28;9.55;;;8.60;;
68168;SDS011;54981;50.206;15.978;2023-08-08T00:43:58;8.55;;;7.75;;
68168;SDS011;54981;50.206;15.978;2023-08-08T00:46:29;7.97;;;7.18;;
68168;SDS011;54981;50.206;15.978;2023-08-08T00:48:59;8.43;;;7.15;;
68168;SDS011;54981;50.206;15.978;2023-08-08T00:51:30;8.98;;;7.88;;
68168;SDS011;54981;50.206;15.978;2023-08-08T00:54:00;9.20;;;7.15;;
68168;SDS011;54981;50.206;15.978;2023-08-08T00:56:31;8.18;;;7.38;;
68168;SDS011;54981;50.206;15.978;2023-08-08T00:59:02;8.32;;;7.53;;
68168;SDS011;54981;50.206;15.978;2023-08-08T01:01:33;8.73;;;8.02;;
68168;SDS011;54981;50.206;15.978;2023-08-08T01:04:03;8.43;;;7.72;;
68168;SDS011;54981;50.206;15.978;2023-08-08T01:06:42;9.43;;;8.52;;
68168;SDS011;54981;50.206;15.978;2023-08-08T01:09:24;9.43;;;7.25;;
68168;SDS011;54981;50.206;15.978;2023-08-08T01:12:00;8.80;;;8.00;;
68168;SDS011;54981;50.206;15.978;2023-08-08T01:14:32;8.63;;;7.22;;
68168;SDS011;54981;50.206;15.978;2023-08-08T01:17:05;9.55;;;8.65;;
68168;SDS011;54981;50.206;15.978;2023-08-08T01:19:35;8.65;;;7.75;;
68168;SDS011;54981;50.206;15.978;2023-08-08T01:22:09;9.35;;;8.45;;
68168;SDS011;54981;50.206;15.978;2023-08-08T01:24:44;9.32;;;8.43;;
68168;SDS011;54981;50.206;15.978;2023-08-08T01:27:15;9.27;;;7.80;;
68168;SDS011;54981;50.206;15.978;2023-08-08T01:29:46;8.60;;;7.80;;
68168;SDS011;54981;50.206;15.978;2023-08-08T01:32:16;9.90;;;8.10;;
68168;SDS011;54981;50.206;15.978;2023-08-08T01:34:46;9.30;;;8.38;;
68168;SDS011;54981;50.206;15.978;2023-08-08T01:37:18;9.32;;;7.10;;
68168;SDS011;54981;50.206;15.978;2023-08-08T01:39:53;10.27;;;9.25;;
68168;SDS011;54981;50.206;15.978;2023-08-08T01:42:24;8.93;;;8.13;;
68168;SDS011;54981;50.206;15.978;2023-08-08T01:44:55;9.75;;;7.72;;
68168;SDS011;54981;50.206;15.978;2023-08-08T01:47:27;9.57;;;7.93;;
68168;SDS011;54981;50.206;15.978;2023-08-08T01:49:57;9.98;;;9.07;;
68168;SDS011;54981;50.206;15.978;2023-08-08T01:52:27;10.85;;;8.90;;
68168;SDS011;54981;50.206;15.978;2023-08-08T01:54:58;8.95;;;8.05;;
68168;SDS011;54981;50.206;15.978;2023-08-08T01:57:28;9.43;;;8.32;;
68168;SDS011;54981;50.206;15.978;2023-08-08T01:59:58;9.48;;;8.55;;
68168;SDS011;54981;50.206;15.978;2023-08-08T02:02:29;9.50;;;8.30;;
68168;SDS011;54981;50.206;15.978;2023-08-08T02:04:59;9.93;;;8.93;;
68168;SDS011;54981;50.206;15.978;2023-08-08T02:07:29;8.00;;;7.30;;
68168;SDS011;54981;50.206;15.978;2023-08-08T02:10:00;8.70;;;7.80;;
68168;SDS011;54981;50.206;15.978;2023-08-08T02:12:30;9.05;;;8.13;;
68168;SDS011;54981;50.206;15.978;2023-08-08T02:15:00;9.48;;;8.52;;
68168;SDS011;54981;50.206;15.978;2023-08-08T02:17:31;8.95;;;7.40;;
68168;SDS011;54981;50.206;15.978;2023-08-08T02:20:01;9.63;;;8.82;;
68168;SDS011;54981;50.206;15.978;2023-08-08T02:22:33;10.40;;;9.38;;
68168;SDS011;54981;50.206;15.978;2023-08-08T02:25:04;9.60;;;8.70;;
68168;SDS011;54981;50.206;15.978;2023-08-08T02:27:34;9.88;;;8.88;;
68168;SDS011;54981;50.206;15.978;2023-08-08T02:30:05;9.30;;;7.95;;
68168;SDS011;54981;50.206;15.978;2023-08-08T02:32:36;10.77;;;8.68;;
68168;SDS011;54981;50.206;15.978;2023-08-08T02:35:06;9.88;;;8.95;;
68168;SDS011;54981;50.206;15.978;2023-08-08T02:37:37;13.35;;;8.65;;
68168;SDS011;54981;50.206;15.978;2023-08-08T02:40:08;9.15;;;8.35;;
68168;SDS011;54981;50.206;15.978;2023-08-08T02:42:39;12.18;;;9.00;;
68168;SDS011;54981;50.206;15.978;2023-08-08T02:45:10;9.88;;;8.88;;
68168;SDS011;54981;50.206;15.978;2023-08-08T02:47:40;9.18;;;8.18;;
68168;SDS011;54981;50.206;15.978;2023-08-08T02:50:10;9.82;;;8.27;;
68168;SDS011;54981;50.206;15.978;2023-08-08T02:52:41;9.13;;;8.23;;
68168;SDS011;54981;50.206;15.978;2023-08-08T02:55:11;9.48;;;8.63;;
68168;SDS011;54981;50.206;15.978;2023-08-08T02:57:41;9.32;;;8.40;;
68168;SDS011;54981;50.206;15.978;2023-08-08T03:00:12;9.63;;;8.63;;
68168;SDS011;54981;50.206;15.978;2023-08-08T03:02:43;11.75;;;8.23;;
68168;SDS011;54981;50.206;15.978;2023-08-08T03:05:13;8.70;;;7.80;;
68168;SDS011;54981;50.206;15.978;2023-08-08T03:07:43;9.43;;;8.52;;
68168;SDS011;54981;50.206;15.978;2023-08-08T03:10:14;9.50;;;8.25;;
68168;SDS011;54981;50.206;15.978;2023-08-08T03:12:45;8.52;;;7.60;;
68168;SDS011;54981;50.206;15.978;2023-08-08T03:15:15;9.82;;;8.82;;
68168;SDS011;54981;50.206;15.978;2023-08-08T03:17:46;9.35;;;8.25;;
68168;SDS011;54981;50.206;15.978;2023-08-08T03:20:16;9.50;;;8.60;;
68168;SDS011;54981;50.206;15.978;2023-08-08T03:22:47;10.23;;;8.63;;
68168;SDS011;54981;50.206;15.978;2023-08-08T03:25:17;10.15;;;9.20;;
68168;SDS011;54981;50.206;15.978;2023-08-08T03:27:50;9.75;;;8.75;;
68168;SDS011;54981;50.206;15.978;2023-08-08T03:30:21;10.93;;;9.90;;
68168;SDS011;54981;50.206;15.978;2023-08-08T03:32:51;8.60;;;7.70;;
68168;SDS011;54981;50.206;15.978;2023-08-08T03:35:22;10.20;;;9.15;;
68168;SDS011;54981;50.206;15.978;2023-08-08T03:37:52;8.93;;;8.10;;
68168;SDS011;54981;50.206;15.978;2023-08-08T03:40:23;9.13;;;8.32;;
68168;SDS011;54981;50.206;15.978;2023-08-08T03:42:53;9.35;;;8.45;;
68168;SDS011;54981;50.206;15.978;2023-08-08T03:45:24;10.25;;;8.95;;
68168;SDS011;54981;50.206;15.978;2023-08-08T03:47:54;9.02;;;8.13;;
68168;SDS011;54981;50.206;15.978;2023-08-08T03:50:24;10.27;;;9.23;;
68168;SDS011;54981;50.206;15.978;2023-08-08T03:52:55;10.65;;;9.63;;
68168;SDS011;54981;50.206;15.978;2023-08-08T03:55:25;9.65;;;8.73;;
68168;SDS011;54981;50.206;15.978;2023-08-08T03:57:56;9.73;;;8.85;;
68168;SDS011;54981;50.206;15.978;2023-08-08T04:00:26;11.40;;;10.27;;
68168;SDS011;54981;50.206;15.978;2023-08-08T04:02:56;9.55;;;8.77;;
68168;SDS011;54981;50.206;15.978;2023-08-08T04:05:27;10.93;;;9.93;;
68168;SDS011;54981;50.206;15.978;2023-08-08T04:07:57;10.02;;;9.13;;
68168;SDS011;54981;50.206;15.978;2023-08-08T04:10:27;10.80;;;9.85;;
68168;SDS011;54981;50.206;15.978;2023-08-08T04:12:58;9.38;;;8.40;;
68168;SDS011;54981;50.206;15.978;2023-08-08T04:15:28;10.35;;;9.35;;
68168;SDS011;54981;50.206;15.978;2023-08-08T04:17:59;9.63;;;8.10;;
68168;SDS011;54981;50.206;15.978;2023-08-08T04:20:29;9.35;;;8.45;;
68168;SDS011;54981;50.206;15.978;2023-08-08T04:23:00;9.73;;;8.02;;
68168;SDS011;54981;50.206;15.978;2023-08-08T04:25:30;10.23;;;8.43;;
68168;SDS011;54981;50.206;15.978;2023-08-08T04:28:00;9.98;;;8.93;;
68168;SDS011;54981;50.206;15.978;2023-08-08T04:30:31;9.70;;;8.63;;
68168;SDS011;54981;50.206;15.978;2023-08-08T04:33:01;9.52;;;8.55;;
68168;SDS011;54981;50.206;15.978;2023-08-08T04:35:32;10.32;;;9.05;;
68168;SDS011;54981;50.206;15.978;2023-08-08T04:38:02;9.80;;;8.65;;
68168;SDS011;54981;50.206;15.978;2023-08-08T04:40:33;8.43;;;7.70;;
68168;SDS011;54981;50.206;15.978;2023-08-08T04:43:05;10.05;;;9.15;;
68168;SDS011;54981;50.206;15.978;2023-08-08T04:45:35;10.75;;;7.55;;
68168;SDS011;54981;50.206;15.978;2023-08-08T04:48:05;8.80;;;7.97;;
68168;SDS011;54981;50.206;15.978;2023-08-08T04:50:36;10.02;;;8.35;;
68168;SDS011;54981;50.206;15.978;2023-08-08T04:53:06;8.70;;;7.85;;
68168;SDS011;54981;50.206;15.978;2023-08-08T04:55:37;8.77;;;7.97;;
68168;SDS011;54981;50.206;15.978;2023-08-08T04:58:07;9.27;;;6.88;;
68168;SDS011;54981;50.206;15.978;2023-08-08T05:00:37;10.05;;;7.35;;
68168;SDS011;54981;50.206;15.978;2023-08-08T05:03:08;9.07;;;8.18;;
68168;SDS011;54981;50.206;15.978;2023-08-08T05:05:38;10.57;;;7.22;;
68168;SDS011;54981;50.206;15.978;2023-08-08T05:08:08;7.88;;;6.78;;
68168;SDS011;54981;50.206;15.978;2023-08-08T05:10:39;8.13;;;6.68;;
68168;SDS011;54981;50.206;15.978;2023-08-08T05:13:09;7.53;;;6.93;;
68168;SDS011;54981;50.206;15.978;2023-08-08T05:15:40;8.27;;;6.88;;
68168;SDS011;54981;50.206;15.978;2023-08-08T05:18:10;8.30;;;6.22;;
68168;SDS011;54981;50.206;15.978;2023-08-08T05:20:41;7.57;;;6.82;;
68168;SDS011;54981;50.206;15.978;2023-08-08T05:23:11;7.95;;;5.97;;
68168;SDS011;54981;50.206;15.978;2023-08-08T05:25:41;7.10;;;6.40;;
68168;SDS011;54981;50.206;15.978;2023-08-08T05:28:12;8.80;;;7.18;;
68168;SDS011;54981;50.206;15.978;2023-08-08T05:30:42;6.68;;;5.72;;
68168;SDS011;54981;50.206;15.978;2023-08-08T05:33:13;8.40;;;6.97;;
68168;SDS011;54981;50.206;15.978;2023-08-08T05:35:43;6.75;;;6.15;;
68168;SDS011;54981;50.206;15.978;2023-08-08T05:38:13;7.45;;;6.80;;
68168;SDS011;54981;50.206;15.978;2023-08-08T05:40:44;8.40;;;6.45;;
68168;SDS011;54981;50.206;15.978;2023-08-08T05:43:14;8.23;;;7.15;;
68168;SDS011;54981;50.206;15.978;2023-08-08T05:45:48;7.70;;;7.00;;
68168;SDS011;54981;50.206;15.978;2023-08-08T05:48:18;8.07;;;6.85;;
68168;SDS011;54981;50.206;15.978;2023-08-08T05:50:48;8.45;;;6.32;;
68168;SDS011;54981;50.206;15.978;2023-08-08T05:53:19;7.63;;;6.85;;
68168;SDS011;54981;50.206;15.978;2023-08-08T05:55:49;7.13;;;6.43;;
68168;SDS011;54981;50.206;15.978;2023-08-08T05:58:20;7.32;;;6.72;;
68168;SDS011;54981;50.206;15.978;2023-08-08T06:00:50;7.68;;;6.97;;
68168;SDS011;54981;50.206;15.978;2023-08-08T06:03:20;7.82;;;6.30;;
68168;SDS011;54981;50.206;15.978;2023-08-08T06:05:51;7.75;;;6.65;;
68168;SDS011;54981;50.206;15.978;2023-08-08T06:08:21;6.80;;;6.05;;
68168;SDS011;54981;50.206;15.978;2023-08-08T06:10:51;7.07;;;6.45;;
68168;SDS011;54981;50.206;15.978;2023-08-08T06:13:22;6.80;;;6.15;;
68168;SDS011;54981;50.206;15.978;2023-08-08T06:15:52;7.07;;;5.75;;
68168;SDS011;54981;50.206;15.978;2023-08-08T06:18:23;7.20;;;6.50;;
68168;SDS011;54981;50.206;15.978;2023-08-08T06:20:53;7.28;;;6.63;;
68168;SDS011;54981;50.206;15.978;2023-08-08T06:23:23;6.03;;;5.53;;
68168;SDS011;54981;50.206;15.978;2023-08-08T06:25:54;6.53;;;5.93;;
68168;SDS011;54981;50.206;15.978;2023-08-08T06:28:24;7.82;;;5.60;;
68168;SDS011;54981;50.206;15.978;2023-08-08T06:30:55;7.47;;;5.85;;
68168;SDS011;54981;50.206;15.978;2023-08-08T06:33:27;6.85;;;6.15;;
68168;SDS011;54981;50.206;15.978;2023-08-08T06:35:58;7.50;;;6.75;;
68168;SDS011;54981;50.206;15.978;2023-08-08T06:38:28;6.57;;;5.40;;
68168;SDS011;54981;50.206;15.978;2023-08-08T06:41:02;5.95;;;5.35;;
68168;SDS011;54981;50.206;15.978;2023-08-08T06:43:33;6.22;;;5.63;;
68168;SDS011;54981;50.206;15.978;2023-08-08T06:46:04;8.75;;;5.70;;
68168;SDS011;54981;50.206;15.978;2023-08-08T06:48:34;6.80;;;6.10;;
68168;SDS011;54981;50.206;15.978;2023-08-08T06:51:05;6.72;;;6.10;;
68168;SDS011;54981;50.206;15.978;2023-08-08T06:53:35;6.95;;;6.18;;
68168;SDS011;54981;50.206;15.978;2023-08-08T06:56:06;6.20;;;5.70;;
68168;SDS011;54981;50.206;15.978;2023-08-08T06:58:36;6.32;;;5.03;;
68168;SDS011;54981;50.206;15.978;2023-08-08T07:01:06;6.03;;;5.38;;
68168;SDS011;54981;50.206;15.978;2023-08-08T07:03:37;6.70;;;6.10;;
68168;SDS011;54981;50.206;15.978;2023-08-08T07:06:07;5.95;;;5.35;;
68168;SDS011;54981;50.206;15.978;2023-08-08T07:08:37;7.50;;;6.03;;
68168;SDS011;54981;50.206;15.978;2023-08-08T07:11:09;5.80;;;5.07;;
68168;SDS011;54981;50.206;15.978;2023-08-08T07:13:40;7.95;;;5.75;;
68168;SDS011;54981;50.206;15.978;2023-08-08T07:16:11;7.05;;;5.45;;
68168;SDS011;54981;50.206;15.978;2023-08-08T07:18:41;6.55;;;4.70;;
68168;SDS011;54981;50.206;15.978;2023-08-08T07:21:11;6.72;;;5.25;;
68168;SDS011;54981;50.206;15.978;2023-08-08T07:23:42;5.28;;;4.78;;
68168;SDS011;54981;50.206;15.978;2023-08-08T07:26:12;6.15;;;5.07;;
68168;SDS011;54981;50.206;15.978;2023-08-08T07:28:42;7.25;;;5.00;;
68168;SDS011;54981;50.206;15.978;2023-08-08T07:31:13;5.35;;;4.85;;
68168;SDS011;54981;50.206;15.978;2023-08-08T07:33:43;7.05;;;5.68;;
68168;SDS011;54981;50.206;15.978;2023-08-08T07:36:13;5.95;;;5.45;;
68168;SDS011;54981;50.206;15.978;2023-08-08T07:38:44;6.38;;;5.50;;
68168;SDS011;54981;50.206;15.978;2023-08-08T07:41:14;6.03;;;5.43;;
68168;SDS011;54981;50.206;15.978;2023-08-08T07:43:44;8.68;;;6.25;;
68168;SDS011;54981;50.206;15.978;2023-08-08T07:46:15;6.45;;;5.85;;
68168;SDS011;54981;50.206;15.978;2023-08-08T07:48:45;6.05;;;5.40;;
68168;SDS011;54981;50.206;15.978;2023-08-08T07:51:15;7.20;;;5.15;;
68168;SDS011;54981;50.206;15.978;2023-08-08T07:53:46;6.10;;;4.72;;
68168;SDS011;54981;50.206;15.978;2023-08-08T07:56:16;6.20;;;5.43;;
68168;SDS011;54981;50.206;15.978;2023-08-08T07:58:47;6.40;;;5.38;;
68168;SDS011;54981;50.206;15.978;2023-08-08T08:01:17;6.20;;;5.10;;
68168;SDS011;54981;50.206;15.978;2023-08-08T08:03:48;8.07;;;5.32;;
68168;SDS011;54981;50.206;15.978;2023-08-08T08:06:19;5.13;;;4.63;;
68168;SDS011;54981;50.206;15.978;2023-08-08T08:08:49;6.85;;;5.60;;
68168;SDS011;54981;50.206;15.978;2023-08-08T08:11:20;6.65;;;5.38;;
68168;SDS011;54981;50.206;15.978;2023-08-08T08:13:50;6.85;;;5.25;;
68168;SDS011;54981;50.206;15.978;2023-08-08T08:16:20;5.57;;;5.07;;
68168;SDS011;54981;50.206;15.978;2023-08-08T08:18:51;4.75;;;4.22;;
68168;SDS011;54981;50.206;15.978;2023-08-08T08:21:21;5.82;;;5.22;;
68168;SDS011;54981;50.206;15.978;2023-08-08T08:23:52;6.15;;;4.93;;
68168;SDS011;54981;50.206;15.978;2023-08-08T08:26:22;5.28;;;4.78;;
68168;SDS011;54981;50.206;15.978;2023-08-08T08:28:52;5.53;;;4.72;;
68168;SDS011;54981;50.206;15.978;2023-08-08T08:31:23;5.05;;;4.53;;
68168;SDS011;54981;50.206;15.978;2023-08-08T08:33:54;7.07;;;4.63;;
68168;SDS011;54981;50.206;15.978;2023-08-08T08:36:28;5.70;;;5.15;;
68168;SDS011;54981;50.206;15.978;2023-08-08T08:38:58;6.03;;;5.18;;
68168;SDS011;54981;50.206;15.978;2023-08-08T08:41:28;4.43;;;3.97;;
68168;SDS011;54981;50.206;15.978;2023-08-08T08:44:03;6.32;;;5.43;;
68168;SDS011;54981;50.206;15.978;2023-08-08T08:46:34;5.85;;;5.13;;
68168;SDS011;54981;50.206;15.978;2023-08-08T08:49:06;5.85;;;4.72;;
68168;SDS011;54981;50.206;15.978;2023-08-08T08:51:40;5.45;;;4.22;;
68168;SDS011;54981;50.206;15.978;2023-08-08T08:54:10;7.65;;;4.63;;
68168;SDS011;54981;50.206;15.978;2023-08-08T08:56:41;5.45;;;4.95;;
68168;SDS011;54981;50.206;15.978;2023-08-08T08:59:12;5.18;;;4.68;;
68168;SDS011;54981;50.206;15.978;2023-08-08T09:01:42;4.70;;;4.30;;
68168;SDS011;54981;50.206;15.978;2023-08-08T09:04:13;5.63;;;4.20;;
68168;SDS011;54981;50.206;15.978;2023-08-08T09:06:47;5.53;;;4.40;;
68168;SDS011;54981;50.206;15.978;2023-08-08T09:09:19;5.20;;;4.25;;
68168;SDS011;54981;50.206;15.978;2023-08-08T09:11:52;5.63;;;5.13;;
68168;SDS011;54981;50.206;15.978;2023-08-08T09:14:26;5.30;;;4.60;;
68168;SDS011;54981;50.206;15.978;2023-08-08T09:16:57;4.95;;;4.53;;
68168;SDS011;54981;50.206;15.978;2023-08-08T09:19:28;5.15;;;4.72;;
68168;SDS011;54981;50.206;15.978;2023-08-08T09:21:58;5.93;;;4.93;;
68168;SDS011;54981;50.206;15.978;2023-08-08T09:24:29;5.40;;;4.88;;
68168;SDS011;54981;50.206;15.978;2023-08-08T09:26:59;5.25;;;4.78;;
68168;SDS011;54981;50.206;15.978;2023-08-08T09:29:30;4.85;;;4.43;;
68168;SDS011;54981;50.206;15.978;2023-08-08T09:32:02;6.07;;;5.43;;
68168;SDS011;54981;50.206;15.978;2023-08-08T09:34:34;4.95;;;4.47;;
68168;SDS011;54981;50.206;15.978;2023-08-08T09:37:05;9.52;;;4.50;;
68168;SDS011;54981;50.206;15.978;2023-08-08T09:39:36;4.68;;;4.28;;
68168;SDS011;54981;50.206;15.978;2023-08-08T09:42:07;4.75;;;4.30;;
68168;SDS011;54981;50.206;15.978;2023-08-08T09:44:38;5.03;;;4.30;;
68168;SDS011;54981;50.206;15.978;2023-08-08T09:47:11;6.10;;;4.53;;
68168;SDS011;54981;50.206;15.978;2023-08-08T09:49:42;4.55;;;4.07;;
68168;SDS011;54981;50.206;15.978;2023-08-08T09:52:13;4.65;;;4.22;;
68168;SDS011;54981;50.206;15.978;2023-08-08T09:54:45;4.00;;;3.60;;
68168;SDS011;54981;50.206;15.978;2023-08-08T09:57:18;5.50;;;3.80;;
68168;SDS011;54981;50.206;15.978;2023-08-08T09:59:48;4.50;;;4.10;;
68168;SDS011;54981;50.206;15.978;2023-08-08T10:02:20;4.55;;;3.97;;
68168;SDS011;54981;50.206;15.978;2023-08-08T10:04:51;4.75;;;3.78;;
68168;SDS011;54981;50.206;15.978;2023-08-08T10:07:22;3.78;;;3.47;;
68168;SDS011;54981;50.206;15.978;2023-08-08T10:09:53;6.10;;;4.60;;
68168;SDS011;54981;50.206;15.978;2023-08-08T10:12:23;6.68;;;3.83;;
68168;SDS011;54981;50.206;15.978;2023-08-08T10:14:56;4.13;;;3.70;;
68168;SDS011;54981;50.206;15.978;2023-08-08T10:17:27;4.63;;;3.83;;
68168;SDS011;54981;50.206;15.978;2023-08-08T10:19:58;5.32;;;3.92;;
68168;SDS011;54981;50.206;15.978;2023-08-08T10:22:29;4.38;;;3.95;;
68168;SDS011;54981;50.206;15.978;2023-08-08T10:25:03;4.68;;;4.28;;
68168;SDS011;54981;50.206;15.978;2023-08-08T10:27:34;4.77;;;4.27;;
68168;SDS011;54981;50.206;15.978;2023-08-08T10:30:07;4.00;;;3.60;;
68168;SDS011;54981;50.206;15.978;2023-08-08T10:32:44;5.47;;;4.28;;
68168;SDS011;54981;50.206;15.978;2023-08-08T10:35:18;3.90;;;3.60;;
68168;SDS011;54981;50.206;15.978;2023-08-08T10:37:52;6.40;;;3.90;;
68168;SDS011;54981;50.206;15.978;2023-08-08T10:40:23;4.70;;;4.30;;
68168;SDS011;54981;50.206;15.978;2023-08-08T10:43:09;4.15;;;3.75;;
68168;SDS011;54981;50.206;15.978;2023-08-08T10:45:42;6.75;;;4.45;;
68168;SDS011;54981;50.206;15.978;2023-08-08T10:48:14;5.75;;;4.60;;
68168;SDS011;54981;50.206;15.978;2023-08-08T10:50:46;5.60;;;4.70;;
68168;SDS011;54981;50.206;15.978;2023-08-08T10:53:16;7.90;;;4.68;;
68168;SDS011;54981;50.206;15.978;2023-08-08T10:55:47;4.65;;;4.25;;
68168;SDS011;54981;50.206;15.978;2023-08-08T10:58:19;5.03;;;4.50;;
68168;SDS011;54981;50.206;15.978;2023-08-08T11:00:50;4.95;;;3.95;;
68168;SDS011;54981;50.206;15.978;2023-08-08T11:03:21;4.22;;;3.85;;
68168;SDS011;54981;50.206;15.978;2023-08-08T11:05:53;8.20;;;4.47;;
68168;SDS011;54981;50.206;15.978;2023-08-08T11:08:27;5.00;;;4.60;;
68168;SDS011;54981;50.206;15.978;2023-08-08T11:11:00;4.50;;;4.10;;
68168;SDS011;54981;50.206;15.978;2023-08-08T11:13:31;6.05;;;4.10;;
68168;SDS011;54981;50.206;15.978;2023-08-08T11:16:01;4.78;;;4.38;;
68168;SDS011;54981;50.206;15.978;2023-08-08T11:18:32;5.10;;;4.68;;
68168;SDS011;54981;50.206;15.978;2023-08-08T11:21:08;4.85;;;4.40;;
68168;SDS011;54981;50.206;15.978;2023-08-08T11:23:44;5.07;;;4.63;;
68168;SDS011;54981;50.206;15.978;2023-08-08T11:26:17;4.35;;;3.92;;
68168;SDS011;54981;50.206;15.978;2023-08-08T11:28:49;5.28;;;4.00;;
68168;SDS011;54981;50.206;15.978;2023-08-08T11:31:20;5.82;;;4.05;;
68168;SDS011;54981;50.206;15.978;2023-08-08T11:33:55;4.28;;;3.88;;
68168;SDS011;54981;50.206;15.978;2023-08-08T11:36:28;5.88;;;3.92;;
68168;SDS011;54981;50.206;15.978;2023-08-08T11:39:01;4.10;;;3.70;;
68168;SDS011;54981;50.206;15.978;2023-08-08T11:41:38;6.10;;;3.80;;
68168;SDS011;54981;50.206;15.978;2023-08-08T11:44:10;4.43;;;3.53;;
68168;SDS011;54981;50.206;15.978;2023-08-08T11:46:44;5.28;;;3.85;;
68168;SDS011;54981;50.206;15.978;2023-08-08T11:49:16;3.40;;;3.10;;
68168;SDS011;54981;50.206;15.978;2023-08-08T11:51:46;5.03;;;3.67;;
68168;SDS011;54981;50.206;15.978;2023-08-08T11:54:17;4.35;;;3.88;;
68168;SDS011;54981;50.206;15.978;2023-08-08T11:56:49;5.22;;;3.75;;
68168;SDS011;54981;50.206;15.978;2023-08-08T11:59:19;4.28;;;3.97;;
68168;SDS011;54981;50.206;15.978;2023-08-08T12:01:49;4.82;;;3.45;;
68168;SDS011;54981;50.206;15.978;2023-08-08T12:04:20;10.57;;;3.58;;
68168;SDS011;54981;50.206;15.978;2023-08-08T12:06:51;3.60;;;3.30;;
68168;SDS011;54981;50.206;15.978;2023-08-08T12:09:31;6.88;;;3.78;;
68168;SDS011;54981;50.206;15.978;2023-08-08T12:12:05;4.10;;;3.70;;
68168;SDS011;54981;50.206;15.978;2023-08-08T12:14:37;3.53;;;3.20;;
68168;SDS011;54981;50.206;15.978;2023-08-08T12:17:11;4.10;;;2.90;;
68168;SDS011;54981;50.206;15.978;2023-08-08T12:19:45;4.32;;;3.28;;
68168;SDS011;54981;50.206;15.978;2023-08-08T12:22:17;4.43;;;3.53;;
68168;SDS011;54981;50.206;15.978;2023-08-08T12:24:47;3.67;;;3.35;;
68168;SDS011;54981;50.206;15.978;2023-08-08T12:27:18;4.05;;;2.97;;
68168;SDS011;54981;50.206;15.978;2023-08-08T12:31:35;4.50;;;4.10;;
68168;SDS011;54981;50.206;15.978;2023-08-08T12:34:06;4.60;;;4.20;;
68168;SDS011;54981;50.206;15.978;2023-08-08T12:36:37;3.70;;;3.40;;
68168;SDS011;54981;50.206;15.978;2023-08-08T12:39:09;3.78;;;3.47;;
68168;SDS011;54981;50.206;15.978;2023-08-08T12:41:40;4.25;;;3.63;;
68168;SDS011;54981;50.206;15.978;2023-08-08T12:44:11;4.15;;;3.60;;
68168;SDS011;54981;50.206;15.978;2023-08-08T12:46:41;4.30;;;3.00;;
68168;SDS011;54981;50.206;15.978;2023-08-08T12:49:11;3.88;;;3.58;;
68168;SDS011;54981;50.206;15.978;2023-08-08T12:51:42;3.13;;;2.83;;
68168;SDS011;54981;50.206;15.978;2023-08-08T12:54:12;3.15;;;2.85;;
68168;SDS011;54981;50.206;15.978;2023-08-08T12:56:43;3.03;;;2.72;;
68168;SDS011;54981;50.206;15.978;2023-08-08T12:59:13;4.00;;;2.80;;
68168;SDS011;54981;50.206;15.978;2023-08-08T13:01:44;4.05;;;2.53;;
68168;SDS011;54981;50.206;15.978;2023-08-08T13:04:14;3.17;;;2.88;;
68168;SDS011;54981;50.206;15.978;2023-08-08T13:06:44;3.53;;;2.92;;
68168;SDS011;54981;50.206;15.978;2023-08-08T13:09:15;2.97;;;2.60;;
68168;SDS011;54981;50.206;15.978;2023-08-08T13:11:46;3.45;;;2.67;;
68168;SDS011;54981;50.206;15.978;2023-08-08T13:14:16;3.78;;;2.70;;
68168;SDS011;54981;50.206;15.978;2023-08-08T13:16:46;2.63;;;2.42;;
68168;SDS011;54981;50.206;15.978;2023-08-08T13:19:17;3.92;;;2.22;;
68168;SDS011;54981;50.206;15.978;2023-08-08T13:21:51;2.60;;;2.40;;
68168;SDS011;54981;50.206;15.978;2023-08-08T13:24:22;2.80;;;2.55;;
68168;SDS011;54981;50.206;15.978;2023-08-08T13:26:53;3.80;;;2.83;;
68168;SDS011;54981;50.206;15.978;2023-08-08T13:29:23;3.88;;;3.15;;
68168;SDS011;54981;50.206;15.978;2023-08-08T13:31:53;4.22;;;2.30;;
68168;SDS011;54981;50.206;15.978;2023-08-08T13:34:24;3.42;;;2.70;;
68168;SDS011;54981;50.206;15.978;2023-08-08T13:36:54;3.72;;;2.90;;
68168;SDS011;54981;50.206;15.978;2023-08-08T13:39:24;4.25;;;2.88;;
68168;SDS011;54981;50.206;15.978;2023-08-08T13:41:55;3.22;;;2.92;;
68168;SDS011;54981;50.206;15.978;2023-08-08T13:44:25;4.00;;;2.80;;
68168;SDS011;54981;50.206;15.978;2023-08-08T13:46:56;2.70;;;2.50;;
68168;SDS011;54981;50.206;15.978;2023-08-08T13:49:27;2.88;;;2.65;;
68168;SDS011;54981;50.206;15.978;2023-08-08T13:51:58;3.50;;;2.58;;
68168;SDS011;54981;50.206;15.978;2023-08-08T13:54:28;3.22;;;2.85;;
68168;SDS011;54981;50.206;15.978;2023-08-08T13:56:59;3.65;;;3.17;;
68168;SDS011;54981;50.206;15.978;2023-08-08T13:59:29;3.15;;;2.83;;
68168;SDS011;54981;50.206;15.978;2023-08-08T14:01:59;3.88;;;2.60;;
68168;SDS011;54981;50.206;15.978;2023-08-08T14:04:30;3.10;;;2.55;;
68168;SDS011;54981;50.206;15.978;2023-08-08T14:07:00;4.07;;;2.80;;
68168;SDS011;54981;50.206;15.978;2023-08-08T14:09:30;8.13;;;3.80;;
68168;SDS011;54981;50.206;15.978;2023-08-08T14:12:01;3.80;;;2.90;;
68168;SDS011;54981;50.206;15.978;2023-08-08T14:14:31;5.28;;;3.00;;
68168;SDS011;54981;50.206;15.978;2023-08-08T14:17:02;4.05;;;2.75;;
68168;SDS011;54981;50.206;15.978;2023-08-08T14:19:32;4.15;;;3.25;;
68168;SDS011;54981;50.206;15.978;2023-08-08T14:22:02;3.42;;;3.13;;
68168;SDS011;54981;50.206;15.978;2023-08-08T14:24:33;4.18;;;2.85;;
68168;SDS011;54981;50.206;15.978;2023-08-08T14:27:03;4.50;;;3.20;;
68168;SDS011;54981;50.206;15.978;2023-08-08T14:29:33;4.97;;;3.08;;
68168;SDS011;54981;50.206;15.978;2023-08-08T14:32:04;3.22;;;2.92;;
68168;SDS011;54981;50.206;15.978;2023-08-08T14:34:34;5.18;;;3.10;;
68168;SDS011;54981;50.206;15.978;2023-08-08T14:37:07;3.55;;;3.25;;
68168;SDS011;54981;50.206;15.978;2023-08-08T14:39:38;3.28;;;2.80;;
68168;SDS011;54981;50.206;15.978;2023-08-08T14:42:08;4.15;;;3.38;;
68168;SDS011;54981;50.206;15.978;2023-08-08T14:44:38;3.80;;;3.50;;
68168;SDS011;54981;50.206;15.978;2023-08-08T14:47:09;6.63;;;3.47;;
68168;SDS011;54981;50.206;15.978;2023-08-08T14:49:39;4.50;;;3.15;;
68168;SDS011;54981;50.206;15.978;2023-08-08T14:52:10;4.05;;;3.20;;
68168;SDS011;54981;50.206;15.978;2023-08-08T14:54:41;4.07;;;3.67;;
68168;SDS011;54981;50.206;15.978;2023-08-08T14:57:11;4.43;;;3.35;;